Time;durP1;ratioP1;P1;durP2;ratioP2;P2;SDS_P1;SDS_P2;PMS_P1;PMS_P2;Temp;Humidity;BMP_temperature;BMP_pressure;BME280_temperature;BME280_humidity;BME280_pressure;Samples;Min_cycle;Max_cycle;Signal;HPM_P1;HPM_P2
2024/02/06 00:01:49;;;;;;;;;;;;;;;23.20;28.05;97539.84;5114612;27;20011;-81
2024/02/06 00:04:15;;;;;;;;;;;;;;;22.43;28.95;97546.16;5113261;28;19927;-82
2024/02/06 00:06:41;;;;;;;;;;;;;;;21.91;30.53;97525.81;5095445;28;19920;-81
2024/02/06 00:09:08;;;;;;;;;;;;;;;22.48;27.00;97528.06;5103279;27;19924;-81
2024/02/06 00:11:34;;;;;;;;;;;;;;;23.91;25.18;97519.81;5101633;28;19926;-81
2024/02/06 00:14:00;;;;;;;;;;;;;;;23.47;25.77;97528.34;5096218;27;19970;-81
2024/02/06 00:16:27;;;;;;;;;;;;;;;22.96;26.90;97532.91;5102501;28;20285;-82
2024/02/06 00:18:53;;;;;;;;;;;;;;;23.13;28.89;97509.22;5101847;28;20374;-81
2024/02/06 00:21:18;;;;;;;;;;;;;;;23.04;29.79;97517.47;5112421;27;19977;-82
2024/02/06 00:23:44;;;;;;;;;;;;;;;23.93;26.86;97534.19;5086747;28;19920;-81
2024/02/06 00:26:10;;;;;;;;;;;;;;;23.44;25.87;97520.81;5112193;28;20385;-81
2024/02/06 00:28:37;;;;;;;;;;;;;;;23.99;25.20;97521.16;5108167;28;19963;-81
2024/02/06 00:31:03;;;;;;;;;;;;;;;24.44;24.62;97520.19;5099261;28;19915;-82
2024/02/06 00:33:29;;;;;;;;;;;;;;;24.30;25.08;97524.25;5115113;28;19915;-82
2024/02/06 00:35:55;;;;;;;;;;;;;;;23.49;25.45;97523.06;5115194;28;20069;-82
2024/02/06 00:38:21;;;;;;;;;;;;;;;23.95;25.51;97528.91;5109941;28;19932;-82
2024/02/06 00:40:47;;;;;;;;;;;;;;;23.61;26.51;97520.31;5101360;27;19920;-82
2024/02/06 00:43:13;;;;;;;;;;;;;;;24.24;25.95;97523.25;5104427;28;19919;-82
2024/02/06 00:45:39;;;;;;;;;;;;;;;23.38;26.03;97518.53;5109959;28;19917;-82
2024/02/06 00:48:06;;;;;;;;;;;;;;;22.92;26.51;97515.41;5110397;28;19916;-82
2024/02/06 00:50:32;;;;;;;;;;;;;;;21.95;28.62;97524.50;5113427;27;19920;-81
2024/02/06 00:52:58;;;;;;;;;;;;;;;22.79;26.14;97498.53;5103163;28;20387;-81
2024/02/06 00:55:24;;;;;;;;;;;;;;;22.31;27.45;97518.13;5111718;28;19943;-81
2024/02/06 00:57:50;;;;;;;;;;;;;;;22.48;26.75;97498.09;5125631;27;19922;-82
2024/02/06 01:00:16;;;;;;;;;;;;;;;23.43;25.49;97513.66;5116562;27;19924;-82
2024/02/06 01:02:42;;;;;;;;;;;;;;;23.20;25.21;97515.44;5094221;28;20467;-82
2024/02/06 01:05:08;;;;;;;;;;;;;;;22.93;26.35;97514.19;5094876;28;20403;-82
2024/02/06 01:07:34;;;;;;;;;;;;;;;22.43;26.78;97520.19;5095372;28;19920;-81
2024/02/06 01:10:00;;;;;;;;;;;;;;;23.69;24.75;97513.25;5122792;27;19911;-82
2024/02/06 01:12:26;;;;;;;;;;;;;;;22.58;26.08;97511.03;5126706;27;19926;-81
2024/02/06 01:14:55;;;;;;;;;;;;;;;22.43;29.26;97532.19;5096100;28;19923;-81
2024/02/06 01:17:21;;;;;;;;;;;;;;;22.48;31.74;97522.47;5114375;28;19920;-81
2024/02/06 01:19:49;;;;;;;;;;;;;;;22.02;32.58;97515.97;5106303;28;19923;-81
2024/02/06 01:22:15;;;;;;;;;;;;;;;22.32;27.28;97514.88;5106423;27;19920;-82
2024/02/06 01:24:41;;;;;;;;;;;;;;;22.45;27.66;97504.56;5108224;28;19931;-81
2024/02/06 01:27:07;;;;;;;;;;;;;;;23.18;25.37;97509.47;5100210;28;19916;-81
2024/02/06 01:29:34;;;;;;;;;;;;;;;22.22;26.73;97510.31;5103427;28;19915;-81
2024/02/06 01:32:00;;;;;;;;;;;;;;;21.98;31.74;97501.25;5098467;28;20345;-82
2024/02/06 01:34:26;;;;;;;;;;;;;;;22.32;28.15;97506.47;5104607;28;19943;-82
2024/02/06 01:36:52;;;;;;;;;;;;;;;22.92;25.51;97502.19;5102875;28;19920;-81
2024/02/06 01:39:18;;;;;;;;;;;;;;;23.75;26.76;97497.47;5103769;28;20058;-81
2024/02/06 01:41:44;;;;;;;;;;;;;;;23.40;25.48;97498.50;5097645;28;20362;-81
2024/02/06 01:44:10;;;;;;;;;;;;;;;23.65;24.52;97490.16;5105084;28;19922;-82
2024/02/06 01:46:36;;;;;;;;;;;;;;;22.23;26.14;97480.34;5107352;28;19920;-81
2024/02/06 01:49:04;;;;;;;;;;;;;;;22.45;26.72;97473.78;5103264;28;19969;-81
2024/02/06 01:51:32;;;;;;;;;;;;;;;22.58;26.10;97477.47;5104644;28;19922;-81
2024/02/06 01:53:59;;;;;;;;;;;;;;;22.69;25.84;97478.00;5094460;28;19931;-80
2024/02/06 01:56:25;;;;;;;;;;;;;;;22.89;25.60;97477.91;5076692;28;19924;-81
2024/02/06 01:58:53;;;;;;;;;;;;;;;24.17;23.59;97469.38;5098284;28;19974;-81
2024/02/06 02:01:19;;;;;;;;;;;;;;;23.52;24.49;97464.16;5097130;28;19924;-81
2024/02/06 02:03:47;;;;;;;;;;;;;;;24.06;24.23;97466.94;5102686;28;19920;-80
2024/02/06 02:06:14;;;;;;;;;;;;;;;23.72;27.37;97459.13;5096704;28;20017;-80
2024/02/06 02:08:40;;;;;;;;;;;;;;;23.73;25.10;97469.13;5104962;28;20380;-81
2024/02/06 02:11:06;;;;;;;;;;;;;;;23.97;23.71;97475.16;5101872;28;19916;-81
2024/02/06 02:13:32;;;;;;;;;;;;;;;23.70;24.56;97472.00;5103825;28;20271;-81
2024/02/06 02:15:58;;;;;;;;;;;;;;;23.81;24.20;97473.25;5100507;28;20277;-80
2024/02/06 02:18:36;;;;;;;;;;;;;;;24.80;23.22;97464.47;5105543;28;19920;-81
2024/02/06 02:21:07;;;;;;;;;;;;;;;24.39;23.73;97462.63;5101115;28;19973;-80
2024/02/06 02:23:33;;;;;;;;;;;;;;;23.47;27.82;97453.47;5100960;28;19920;-80
2024/02/06 02:25:59;;;;;;;;;;;;;;;24.27;23.33;97462.66;5104506;28;19942;-80
2024/02/06 02:28:25;;;;;;;;;;;;;;;22.77;26.30;97453.41;5097915;28;19926;-81
2024/02/06 02:30:51;;;;;;;;;;;;;;;23.76;24.10;97454.19;5103151;28;19924;-80
2024/02/06 02:33:18;;;;;;;;;;;;;;;23.99;26.22;97455.91;5099508;28;19939;-80
2024/02/06 02:35:45;;;;;;;;;;;;;;;24.42;23.08;97453.31;5104176;27;20017;-80
2024/02/06 02:38:11;;;;;;;;;;;;;;;24.92;22.68;97460.84;5099526;28;20400;-80
2024/02/06 02:40:37;;;;;;;;;;;;;;;25.09;22.14;97455.81;5102733;27;19920;-80
2024/02/06 02:43:04;;;;;;;;;;;;;;;23.68;27.83;97466.84;5108876;28;19919;-81
2024/02/06 02:45:30;;;;;;;;;;;;;;;24.24;23.16;97474.75;5105440;27;19920;-80
2024/02/06 02:47:56;;;;;;;;;;;;;;;24.31;23.05;97471.72;5108875;27;19920;-81
2024/02/06 02:50:22;;;;;;;;;;;;;;;23.47;24.17;97473.09;5097542;28;20019;-81
2024/02/06 02:52:48;;;;;;;;;;;;;;;23.06;25.26;97459.81;5098011;28;19963;-81
2024/02/06 02:55:14;;;;;;;;;;;;;;;22.68;24.91;97467.25;5107202;27;20404;-80
2024/02/06 02:57:40;;;;;;;;;;;;;;;22.23;25.46;97455.97;5095016;28;19941;-80
2024/02/06 03:00:06;;;;;;;;;;;;;;;22.63;29.09;97460.19;5103862;27;19920;-80
2024/02/06 03:02:32;;;;;;;;;;;;;;;23.39;24.13;97460.50;5103411;27;19920;-80
2024/02/06 03:04:58;;;;;;;;;;;;;;;23.57;24.58;97463.56;5114400;28;20316;-81
2024/02/06 03:07:26;;;;;;;;;;;;;;;23.47;24.86;97452.69;5109737;27;19946;-80
2024/02/06 03:09:52;;;;;;;;;;;;;;;24.09;23.16;97454.78;5105476;27;20006;-80
2024/02/06 03:12:18;;;;;;;;;;;;;;;23.03;24.42;97452.31;5111438;28;19959;-80
2024/02/06 03:14:44;;;;;;;;;;;;;;;22.34;27.25;97450.09;5102813;27;19975;-80
2024/02/06 03:17:10;;;;;;;;;;;;;;;23.45;24.51;97447.53;5106776;28;19924;-80
2024/02/06 03:19:36;;;;;;;;;;;;;;;23.31;24.18;97457.09;5107825;27;20023;-80
2024/02/06 03:22:02;;;;;;;;;;;;;;;22.62;25.01;97446.59;5101420;27;19920;-81
2024/02/06 03:24:28;;;;;;;;;;;;;;;22.83;25.17;97453.66;5099526;28;20003;-80
2024/02/06 03:26:55;;;;;;;;;;;;;;;23.40;23.99;97456.50;5107378;28;20313;-80
2024/02/06 03:29:21;;;;;;;;;;;;;;;24.43;23.04;97442.88;5105337;28;19977;-81
2024/02/06 03:31:47;;;;;;;;;;;;;;;25.96;20.92;97450.97;5110710;28;19926;-81
2024/02/06 03:34:13;;;;;;;;;;;;;;;26.98;19.99;97445.97;5103602;28;19944;-81
2024/02/06 03:36:40;;;;;;;;;;;;;;;27.01;19.83;97453.47;5102751;28;19920;-80
2024/02/06 03:39:08;;;;;;;;;;;;;;;25.85;21.11;97454.19;5101648;28;19920;-80
2024/02/06 03:41:34;;;;;;;;;;;;;;;25.75;21.12;97451.78;5099356;27;19920;-80
2024/02/06 03:44:00;;;;;;;;;;;;;;;25.73;21.18;97445.84;5098946;28;19920;-81
2024/02/06 03:46:26;;;;;;;;;;;;;;;25.30;21.37;97444.59;5097511;28;19916;-81
2024/02/06 03:48:52;;;;;;;;;;;;;;;24.55;24.02;97439.25;5096312;28;19919;-81
2024/02/06 03:51:18;;;;;;;;;;;;;;;24.67;22.00;97444.03;5102808;28;20041;-81
2024/02/06 03:53:44;;;;;;;;;;;;;;;24.76;22.08;97446.16;5107593;28;19967;-80
2024/02/06 03:56:14;;;;;;;;;;;;;;;24.92;21.89;97448.84;5105146;28;19930;-80
2024/02/06 03:58:40;;;;;;;;;;;;;;;25.57;21.23;97446.06;5095293;28;20002;-80
2024/02/06 04:01:06;;;;;;;;;;;;;;;25.79;20.91;97450.41;5095208;28;19957;-80
2024/02/06 04:03:32;;;;;;;;;;;;;;;26.46;20.25;97444.94;5105164;28;19919;-80
2024/02/06 04:05:58;;;;;;;;;;;;;;;26.70;19.75;97443.06;5096479;28;19919;-81
2024/02/06 04:08:24;;;;;;;;;;;;;;;26.27;20.40;97451.75;5112131;27;19926;-80
2024/02/06 04:10:50;;;;;;;;;;;;;;;26.81;19.85;97439.84;5104033;27;19917;-81
2024/02/06 04:13:16;;;;;;;;;;;;;;;26.30;20.43;97444.41;5098823;27;19920;-81
2024/02/06 04:15:42;;;;;;;;;;;;;;;26.05;20.71;97439.75;5096712;28;19920;-80
2024/02/06 04:18:09;;;;;;;;;;;;;;;25.46;21.57;97446.47;5104423;28;19916;-80
2024/02/06 04:20:35;;;;;;;;;;;;;;;25.67;21.01;97453.31;5094927;28;19976;-80
2024/02/06 04:23:01;;;;;;;;;;;;;;;24.97;22.41;97446.22;5101985;28;19920;-80
2024/02/06 04:25:27;;;;;;;;;;;;;;;24.19;22.47;97447.28;5105862;28;19931;-80
2024/02/06 04:27:54;;;;;;;;;;;;;;;24.25;22.54;97445.50;5102760;28;19919;-80
2024/02/06 04:30:20;;;;;;;;;;;;;;;24.62;22.08;97448.22;5081233;28;20389;-80
2024/02/06 04:32:48;;;;;;;;;;;;;;;25.23;21.49;97449.69;5095705;28;19916;-80
2024/02/06 04:35:14;;;;;;;;;;;;;;;24.73;21.84;97445.06;5103771;28;19919;-81
2024/02/06 04:37:41;;;;;;;;;;;;;;;24.95;21.55;97445.88;5114864;28;20389;-81
2024/02/06 04:40:07;;;;;;;;;;;;;;;24.57;23.22;97450.81;5096688;28;20014;-80
2024/02/06 04:42:33;;;;;;;;;;;;;;;24.94;21.70;97449.16;5112145;28;19920;-80
2024/02/06 04:44:59;;;;;;;;;;;;;;;24.49;22.34;97455.09;5119937;27;19924;-80
2024/02/06 04:47:25;;;;;;;;;;;;;;;24.16;25.10;97454.56;5108391;27;19916;-80
2024/02/06 04:49:51;;;;;;;;;;;;;;;24.00;22.81;97447.03;5108134;28;19920;-80
2024/02/06 04:52:17;;;;;;;;;;;;;;;22.83;26.96;97457.25;5077135;28;20278;-81
2024/02/06 04:54:43;;;;;;;;;;;;;;;22.75;28.05;97447.47;5107419;28;20018;-80
2024/02/06 04:57:09;;;;;;;;;;;;;;;22.19;27.52;97452.47;5111323;28;19978;-80
2024/02/06 04:59:35;;;;;;;;;;;;;;;21.13;28.93;97465.97;5094461;28;19921;-80
2024/02/06 05:02:01;;;;;;;;;;;;;;;22.27;26.50;97450.28;5102371;27;19920;-80
2024/02/06 05:04:27;;;;;;;;;;;;;;;22.65;26.66;97451.34;5108232;27;19916;-80
2024/02/06 05:06:53;;;;;;;;;;;;;;;22.56;24.93;97445.56;5085435;28;19947;-80
2024/02/06 05:09:19;;;;;;;;;;;;;;;21.16;29.47;97456.75;5108552;28;19963;-80
2024/02/06 05:11:45;;;;;;;;;;;;;;;22.08;27.36;97449.13;5112326;28;19916;-80
2024/02/06 05:14:12;;;;;;;;;;;;;;;21.22;28.07;97455.00;5102512;28;20397;-81
2024/02/06 05:16:38;;;;;;;;;;;;;;;21.08;27.44;97451.72;5104214;28;19971;-79
2024/02/06 05:19:04;;;;;;;;;;;;;;;21.19;27.14;97463.47;5101102;28;19920;-80
2024/02/06 05:21:30;;;;;;;;;;;;;;;21.75;29.36;97462.25;5094711;28;20349;-80
2024/02/06 05:23:56;;;;;;;;;;;;;;;22.20;26.13;97461.63;5097434;28;19928;-80
2024/02/06 05:26:22;;;;;;;;;;;;;;;22.53;28.82;97478.00;5098065;27;19928;-80
2024/02/06 05:28:48;;;;;;;;;;;;;;;21.64;26.52;97466.50;5105736;28;19919;-79
2024/02/06 05:31:14;;;;;;;;;;;;;;;22.18;25.95;97456.50;5100965;28;19928;-80
2024/02/06 05:33:40;;;;;;;;;;;;;;;20.80;27.96;97475.34;5103259;28;19924;-80
2024/02/06 05:36:06;;;;;;;;;;;;;;;22.54;25.20;97468.34;5099254;28;19920;-80
2024/02/06 05:38:32;;;;;;;;;;;;;;;22.29;25.39;97467.41;5099125;27;20663;-80
2024/02/06 05:40:58;;;;;;;;;;;;;;;22.36;26.76;97470.81;5103176;28;19927;-81
2024/02/06 05:43:24;;;;;;;;;;;;;;;21.83;28.67;97476.84;5100657;28;19928;-81
2024/02/06 05:45:50;;;;;;;;;;;;;;;22.60;26.04;97468.63;5097237;27;19935;-81
2024/02/06 05:48:16;;;;;;;;;;;;;;;21.83;28.57;97483.22;5105328;28;19923;-80
2024/02/06 05:50:42;;;;;;;;;;;;;;;21.00;30.47;97473.38;5096534;28;20032;-80
2024/02/06 05:53:08;;;;;;;;;;;;;;;22.08;25.23;97470.72;5100251;27;19967;-81
2024/02/06 05:55:34;;;;;;;;;;;;;;;21.70;26.92;97476.75;5103624;28;19931;-83
2024/02/06 05:58:01;;;;;;;;;;;;;;;21.80;25.88;97472.91;5097895;28;19920;-81
2024/02/06 06:00:27;;;;;;;;;;;;;;;22.75;24.81;97461.47;5112488;28;19916;-81
2024/02/06 06:02:56;;;;;;;;;;;;;;;21.94;25.44;97472.63;5106082;28;19927;-81
2024/02/06 06:05:22;;;;;;;;;;;;;;;21.32;26.21;97476.34;5112603;28;19915;-81
2024/02/06 06:07:48;;;;;;;;;;;;;;;21.45;27.39;97478.50;5113689;28;19922;-81
2024/02/06 06:10:16;;;;;;;;;;;;;;;20.97;26.62;97471.44;5095590;28;19923;-81
2024/02/06 06:12:42;;;;;;;;;;;;;;;20.61;29.09;97478.84;5094432;28;19961;-81
2024/02/06 06:15:09;;;;;;;;;;;;;;;21.61;29.05;97476.53;5093159;28;19970;-81
2024/02/06 06:17:35;;;;;;;;;;;;;;;21.43;26.22;97483.69;5093182;28;19917;-81
2024/02/06 06:20:01;;;;;;;;;;;;;;;20.92;27.93;97471.13;5107232;28;19975;-81
2024/02/06 06:22:27;;;;;;;;;;;;;;;21.29;26.81;97476.41;5106266;28;19920;-81
2024/02/06 06:24:53;;;;;;;;;;;;;;;22.66;24.31;97481.66;5098623;28;20018;-81
2024/02/06 06:27:19;;;;;;;;;;;;;;;21.65;26.05;97480.03;5097172;28;19916;-81
2024/02/06 06:29:46;;;;;;;;;;;;;;;21.27;28.74;97496.38;5094550;28;19920;-81
2024/02/06 06:32:12;;;;;;;;;;;;;;;20.60;31.90;97494.03;5092547;28;19916;-82
2024/02/06 06:34:41;;;;;;;;;;;;;;;21.06;28.44;97491.22;5108418;28;19982;-81
2024/02/06 06:37:07;;;;;;;;;;;;;;;21.90;30.78;97490.69;5094941;28;19927;-82
2024/02/06 06:39:33;;;;;;;;;;;;;;;23.25;23.99;97483.28;5078707;28;20361;-81
2024/02/06 06:42:00;;;;;;;;;;;;;;;23.38;26.77;97487.72;5103973;28;19924;-81
2024/02/06 06:44:26;;;;;;;;;;;;;;;22.15;28.78;97495.72;5101954;28;19920;-81
2024/02/06 06:46:53;;;;;;;;;;;;;;;21.56;27.09;97488.22;5104687;28;19927;-81
2024/02/06 06:49:19;;;;;;;;;;;;;;;21.98;25.66;97498.47;5103907;28;19931;-81
2024/02/06 06:51:46;;;;;;;;;;;;;;;21.45;31.22;97493.22;5096471;28;19943;-81
2024/02/06 06:54:12;;;;;;;;;;;;;;;22.21;25.20;97496.78;5100927;28;19942;-81
2024/02/06 06:56:38;;;;;;;;;;;;;;;21.04;30.01;97501.22;5103671;28;20447;-81
2024/02/06 06:59:04;;;;;;;;;;;;;;;21.35;29.60;97494.25;5099772;28;19920;-81
2024/02/06 07:01:30;;;;;;;;;;;;;;;21.81;31.06;97510.81;5098867;28;19920;-82
2024/02/06 07:03:56;;;;;;;;;;;;;;;20.50;35.18;97504.16;5108219;28;20550;-81
2024/02/06 07:06:23;;;;;;;;;;;;;;;22.68;25.67;97503.63;5101717;28;19927;-83
2024/02/06 07:08:51;;;;;;;;;;;;;;;21.98;26.73;97497.72;5098896;28;20015;-81
2024/02/06 07:11:17;;;;;;;;;;;;;;;23.51;24.20;97503.78;5111684;28;19925;-80
2024/02/06 07:13:43;;;;;;;;;;;;;;;23.66;23.59;97505.75;5112123;28;19915;-81
2024/02/06 07:16:09;;;;;;;;;;;;;;;24.29;22.93;97505.06;5099497;28;19931;-82
2024/02/06 07:18:35;;;;;;;;;;;;;;;24.03;24.49;97502.22;5102344;27;20006;-80
2024/02/06 07:21:02;;;;;;;;;;;;;;;23.96;23.59;97502.44;5100317;28;20003;-80
2024/02/06 07:23:28;;;;;;;;;;;;;;;24.40;22.91;97506.28;5096258;28;20384;-80
2024/02/06 07:25:54;;;;;;;;;;;;;;;24.04;23.38;97514.22;5110382;28;19959;-80
2024/02/06 07:28:20;;;;;;;;;;;;;;;23.00;27.37;97497.19;5114912;28;19974;-80
2024/02/06 07:30:46;;;;;;;;;;;;;;;22.22;25.58;97503.94;5116738;28;19926;-80
2024/02/06 07:33:12;;;;;;;;;;;;;;;23.21;24.45;97516.22;5113707;28;19923;-80
2024/02/06 07:35:38;;;;;;;;;;;;;;;23.37;27.58;97519.00;5107381;28;19920;-80
2024/02/06 07:38:05;;;;;;;;;;;;;;;22.55;27.03;97523.09;5078372;28;20324;-80
2024/02/06 07:40:31;;;;;;;;;;;;;;;22.39;25.98;97523.09;5095885;28;20424;-80
2024/02/06 07:43:00;;;;;;;;;;;;;;;23.25;24.66;97531.69;5095899;28;19951;-80
2024/02/06 07:45:26;;;;;;;;;;;;;;;22.72;25.56;97518.31;5095574;28;19916;-80
2024/02/06 07:47:53;;;;;;;;;;;;;;;22.58;29.04;97527.03;5095412;28;19916;-80
2024/02/06 07:50:19;;;;;;;;;;;;;;;22.02;33.98;97535.53;5096177;28;20340;-80
2024/02/06 07:52:45;;;;;;;;;;;;;;;21.19;27.53;97538.84;5095784;28;20014;-80
2024/02/06 07:55:11;;;;;;;;;;;;;;;21.80;26.52;97531.59;5096017;28;19920;-80
2024/02/06 07:57:38;;;;;;;;;;;;;;;22.11;28.38;97534.94;5095721;28;19916;-80
2024/02/06 08:00:04;;;;;;;;;;;;;;;21.72;30.32;97534.97;5095433;28;20285;-80
2024/02/06 08:02:31;;;;;;;;;;;;;;;22.96;24.86;97532.91;5096007;28;20342;-80
2024/02/06 08:04:58;;;;;;;;;;;;;;;21.74;26.84;97544.50;5095426;28;19956;-80
2024/02/06 08:07:26;;;;;;;;;;;;;;;20.80;35.89;97549.88;5095905;28;20373;-80
2024/02/06 08:09:52;;;;;;;;;;;;;;;21.68;26.61;97537.06;5096219;28;19916;-80
2024/02/06 08:12:18;;;;;;;;;;;;;;;20.75;30.38;97545.56;5077750;28;19920;-80
2024/02/06 08:14:44;;;;;;;;;;;;;;;21.77;26.97;97538.06;5095182;28;20392;-81
2024/02/06 08:17:10;;;;;;;;;;;;;;;21.86;27.94;97548.69;5095140;28;19912;-80
2024/02/06 08:19:36;;;;;;;;;;;;;;;22.87;26.69;97544.69;5107530;28;20329;-80
2024/02/06 08:22:02;;;;;;;;;;;;;;;23.39;24.81;97530.53;5108567;28;19959;-81
2024/02/06 08:24:28;;;;;;;;;;;;;;;22.92;24.78;97527.38;5105960;28;20010;-80
2024/02/06 08:26:55;;;;;;;;;;;;;;;22.59;25.40;97540.56;5114476;28;19954;-80
2024/02/06 08:29:21;;;;;;;;;;;;;;;22.68;25.42;97537.22;5095377;28;19944;-80
2024/02/06 08:31:47;;;;;;;;;;;;;;;23.41;24.46;97533.69;5108369;28;19915;-80
2024/02/06 08:34:14;;;;;;;;;;;;;;;22.57;26.43;97542.22;5114360;28;19916;-80
2024/02/06 08:36:40;;;;;;;;;;;;;;;22.93;24.83;97539.38;5115073;28;20449;-80
2024/02/06 08:39:06;;;;;;;;;;;;;;;22.66;25.03;97532.03;5115155;28;19923;-80
2024/02/06 08:41:33;;;;;;;;;;;;;;;23.72;23.81;97534.00;5111064;28;20066;-80
2024/02/06 08:44:00;;;;;;;;;;;;;;;22.13;26.69;97538.09;5094706;28;19977;-80
2024/02/06 08:46:27;;;;;;;;;;;;;;;23.15;27.58;97537.59;5094666;28;20362;-80
2024/02/06 08:48:54;;;;;;;;;;;;;;;24.05;24.05;97527.00;5094695;28;19939;-80
2024/02/06 08:51:20;;;;;;;;;;;;;;;23.31;24.39;97523.56;5094580;28;19966;-80
2024/02/06 08:53:46;;;;;;;;;;;;;;;24.43;22.91;97541.09;5094543;28;19923;-80
2024/02/06 08:56:12;;;;;;;;;;;;;;;23.87;23.69;97549.19;5099520;28;19930;-80
2024/02/06 08:58:40;;;;;;;;;;;;;;;24.28;23.28;97548.38;5108369;28;21380;-80
2024/02/06 09:01:06;;;;;;;;;;;;;;;23.73;24.00;97542.00;5096784;28;19980;-80
2024/02/06 09:03:32;;;;;;;;;;;;;;;22.85;24.81;97535.19;5092960;28;19923;-80
2024/02/06 09:05:58;;;;;;;;;;;;;;;22.11;32.67;97560.09;5076038;28;19967;-80
2024/02/06 09:08:24;;;;;;;;;;;;;;;21.95;31.23;97560.06;5094306;28;19923;-80
2024/02/06 09:10:50;;;;;;;;;;;;;;;23.19;26.45;97555.88;5093964;28;19916;-80
2024/02/06 09:13:16;;;;;;;;;;;;;;;22.71;25.83;97541.91;5097162;28;19968;-80
2024/02/06 09:15:42;;;;;;;;;;;;;;;22.51;25.31;97558.78;5113398;28;19919;-80
2024/02/06 09:18:08;;;;;;;;;;;;;;;22.78;28.10;97557.78;5096141;28;19973;-80
2024/02/06 09:20:35;;;;;;;;;;;;;;;25.00;22.50;97563.28;5093848;28;19939;-80
2024/02/06 09:23:03;;;;;;;;;;;;;;;23.27;24.72;97557.25;5093677;28;19950;-80
2024/02/06 09:25:29;;;;;;;;;;;;;;;22.88;24.80;97565.88;5108379;28;20018;-80
2024/02/06 09:27:56;;;;;;;;;;;;;;;22.26;30.13;97572.56;5113819;28;19966;-80
2024/02/06 09:30:22;;;;;;;;;;;;;;;22.16;25.93;97569.97;5114254;28;19938;-80
2024/02/06 09:32:48;;;;;;;;;;;;;;;21.94;28.74;97586.41;5108006;28;20296;-80
2024/02/06 09:35:15;;;;;;;;;;;;;;;21.01;27.50;97572.63;5099381;28;20063;-80
2024/02/06 09:37:41;;;;;;;;;;;;;;;21.81;26.32;97574.31;5113884;28;19923;-80
2024/02/06 09:40:07;;;;;;;;;;;;;;;22.73;25.65;97575.09;5113228;28;19916;-80
2024/02/06 09:42:35;;;;;;;;;;;;;;;24.19;23.55;97565.09;5122451;27;20280;-80
2024/02/06 09:45:01;;;;;;;;;;;;;;;24.27;23.60;97572.06;5134311;27;20010;-80
2024/02/06 09:47:28;;;;;;;;;;;;;;;23.71;25.29;97574.50;5134239;27;19916;-80
2024/02/06 09:49:55;;;;;;;;;;;;;;;24.00;24.09;97575.25;5114057;27;19923;-79
2024/02/06 09:52:22;;;;;;;;;;;;;;;24.81;23.33;97581.16;5093977;28;20592;-80
2024/02/06 09:54:49;;;;;;;;;;;;;;;24.18;23.57;97577.56;5093285;28;20023;-80
2024/02/06 09:57:20;;;;;;;;;;;;;;;22.63;28.97;97566.50;5093253;28;19916;-80
2024/02/06 09:59:49;;;;;;;;;;;;;;;23.21;25.12;97584.22;5093202;28;19912;-80
2024/02/06 10:02:16;;;;;;;;;;;;;;;24.42;23.96;97590.03;5093024;28;19923;-80
2024/02/06 10:04:43;;;;;;;;;;;;;;;24.03;24.49;97585.56;5093470;28;19916;-80
2024/02/06 10:07:11;;;;;;;;;;;;;;;25.06;23.10;97578.34;5093827;28;20396;-80
2024/02/06 10:09:39;;;;;;;;;;;;;;;25.14;23.50;97573.25;5093998;28;19923;-80
2024/02/06 10:12:06;;;;;;;;;;;;;;;24.90;23.28;97558.03;5093229;28;19999;-80
2024/02/06 10:14:33;;;;;;;;;;;;;;;25.50;22.33;97550.34;5093179;28;19942;-80
2024/02/06 10:16:59;;;;;;;;;;;;;;;25.31;22.55;97544.53;5092830;28;19987;-80
2024/02/06 10:19:32;;;;;;;;;;;;;;;25.64;22.87;97549.81;5075172;28;20281;-80
2024/02/06 10:22:01;;;;;;;;;;;;;;;26.47;22.09;97545.00;5093050;28;19916;-80
2024/02/06 10:24:29;;;;;;;;;;;;;;;24.94;22.79;97542.63;5093391;28;20508;-80
2024/02/06 10:27:02;;;;;;;;;;;;;;;25.02;23.08;97552.38;5075345;28;20373;-80
2024/02/06 10:29:28;;;;;;;;;;;;;;;25.59;24.83;97556.03;5112285;28;20369;-80
2024/02/06 10:32:01;;;;;;;;;;;;;;;26.62;22.07;97542.41;5099938;28;20404;-80
2024/02/06 10:34:27;;;;;;;;;;;;;;;26.28;21.91;97542.59;5105156;28;20014;-80
2024/02/06 10:36:57;;;;;;;;;;;;;;;26.28;22.18;97548.22;5093514;28;19931;-80
2024/02/06 10:39:25;;;;;;;;;;;;;;;25.76;22.63;97534.91;5092985;28;20395;-80
2024/02/06 10:42:00;;;;;;;;;;;;;;;26.31;21.98;97538.84;5107427;28;19916;-81
2024/02/06 10:44:28;;;;;;;;;;;;;;;24.60;28.65;97545.31;5112463;28;20624;-80
2024/02/06 10:47:04;;;;;;;;;;;;;;;24.51;26.43;97546.03;5113109;28;19915;-80
2024/02/06 10:49:30;;;;;;;;;;;;;;;24.57;24.55;97518.19;5095523;28;19916;-80
2024/02/06 10:52:07;;;;;;;;;;;;;;;24.17;26.74;97511.47;5094558;28;20349;-80
2024/02/06 10:54:34;;;;;;;;;;;;;;;25.82;22.66;97527.44;5096657;28;20327;-80
2024/02/06 10:57:03;;;;;;;;;;;;;;;24.90;23.41;97516.66;5096541;28;19988;-80
2024/02/06 10:59:32;;;;;;;;;;;;;;;25.76;22.26;97518.84;5096648;28;20362;-80
2024/02/06 11:02:03;;;;;;;;;;;;;;;26.46;22.02;97520.16;5096285;28;20385;-80
2024/02/06 11:04:32;;;;;;;;;;;;;;;26.55;21.56;97517.34;5096638;28;19920;-80
2024/02/06 11:07:05;;;;;;;;;;;;;;;26.18;21.36;97515.66;5096818;28;19959;-80
2024/02/06 11:09:33;;;;;;;;;;;;;;;26.25;21.67;97506.94;5096531;28;19999;-80
2024/02/06 11:12:01;;;;;;;;;;;;;;;23.72;24.64;97503.97;5096397;28;19916;-80
2024/02/06 11:14:28;;;;;;;;;;;;;;;24.35;23.89;97517.28;5096689;28;19916;-80
2024/02/06 11:16:59;;;;;;;;;;;;;;;25.60;22.53;97510.56;5078564;28;20289;-80
2024/02/06 11:19:31;;;;;;;;;;;;;;;25.24;24.15;97505.44;5096116;28;19949;-80
2024/02/06 11:22:17;;;;;;;;;;;;;;;25.46;22.26;97505.50;5096131;28;20316;-80
2024/02/06 11:24:43;;;;;;;;;;;;;;;26.11;21.48;97499.03;5095873;28;19924;-80
2024/02/06 11:27:09;;;;;;;;;;;;;;;25.64;21.76;97493.59;5111367;28;19927;-79
2024/02/06 11:29:36;;;;;;;;;;;;;;;26.76;21.36;97496.00;5096014;28;19917;-79
2024/02/06 11:32:02;;;;;;;;;;;;;;;26.55;21.42;97494.84;5096180;28;20003;-80
2024/02/06 11:34:28;;;;;;;;;;;;;;;26.71;21.15;97472.81;5096428;28;19920;-79
2024/02/06 11:37:00;;;;;;;;;;;;;;;26.04;21.48;97494.47;5077856;28;19916;-79
2024/02/06 11:39:26;;;;;;;;;;;;;;;26.05;21.86;97493.97;5096201;28;19923;-79
2024/02/06 11:41:52;;;;;;;;;;;;;;;26.02;21.62;97489.28;5095382;28;19916;-79
2024/02/06 11:44:23;;;;;;;;;;;;;;;25.94;21.84;97484.41;5096008;28;20057;-80
2024/02/06 11:46:49;;;;;;;;;;;;;;;25.68;23.97;97492.22;5100684;28;19916;-80
2024/02/06 11:49:22;;;;;;;;;;;;;;;25.35;22.85;97494.59;5087857;28;19916;-80
2024/02/06 11:51:55;;;;;;;;;;;;;;;25.30;22.75;97495.19;5096315;28;19931;-80
2024/02/06 11:54:22;;;;;;;;;;;;;;;26.63;21.23;97496.88;5095600;28;20009;-80
2024/02/06 11:56:48;;;;;;;;;;;;;;;26.70;21.17;97488.13;5094235;28;19935;-80
2024/02/06 11:59:14;;;;;;;;;;;;;;;26.79;20.68;97493.06;5095155;28;19924;-79
2024/02/06 12:01:41;;;;;;;;;;;;;;;26.73;20.91;97504.13;5095524;28;19916;-80
2024/02/06 12:04:08;;;;;;;;;;;;;;;27.23;20.48;97490.75;5094382;28;19916;-80
2024/02/06 12:06:35;;;;;;;;;;;;;;;27.33;20.19;97487.44;5096033;28;19969;-80
2024/02/06 12:09:02;;;;;;;;;;;;;;;27.44;22.01;97487.00;5099816;28;19918;-80
2024/02/06 12:11:30;;;;;;;;;;;;;;;26.45;20.99;97481.97;5115757;28;20357;-80
2024/02/06 12:13:56;;;;;;;;;;;;;;;26.97;20.59;97473.34;5115426;28;20319;-80
2024/02/06 12:16:23;;;;;;;;;;;;;;;27.61;19.84;97468.47;5115685;28;19969;-80
2024/02/06 12:18:50;;;;;;;;;;;;;;;25.95;21.10;97463.47;5115253;28;19916;-80
2024/02/06 12:21:19;;;;;;;;;;;;;;;26.97;20.39;97456.44;5100291;28;20398;-79
2024/02/06 12:23:45;;;;;;;;;;;;;;;26.70;20.82;97459.97;5077662;28;19916;-80
2024/02/06 12:26:19;;;;;;;;;;;;;;;27.62;19.89;97452.34;5077348;28;20333;-80
2024/02/06 12:28:45;;;;;;;;;;;;;;;28.42;19.44;97441.28;5085753;28;19960;-80
2024/02/06 12:31:13;;;;;;;;;;;;;;;27.65;21.36;97440.13;5115190;28;19995;-80
2024/02/06 12:33:40;;;;;;;;;;;;;;;27.79;19.37;97445.13;5114982;28;19972;-80
2024/02/06 12:36:07;;;;;;;;;;;;;;;26.82;20.49;97454.69;5115084;28;19945;-80
2024/02/06 12:38:33;;;;;;;;;;;;;;;26.01;20.94;97450.34;5114527;28;20284;-80
2024/02/06 12:41:00;;;;;;;;;;;;;;;25.35;24.65;97438.41;5113850;28;19922;-80
2024/02/06 12:43:26;;;;;;;;;;;;;;;26.61;20.15;97442.28;5114047;28;19919;-80
2024/02/06 12:45:52;;;;;;;;;;;;;;;26.45;20.52;97440.53;5106776;28;19916;-79